LPAZ/SMA METAR and TAF weather

Enter ICAO airport designator
Station Type Date Time Source
LPAZ METAR 2019/10/15 18:30 UTC NOAA

LPAZ 151830Z 27017KT 9999 FEW023 SCT033 BKN040 21/16 Q1020


Station Type Date Time Source
LPAZ Decoded METAR 2019/10/15 18:30 UTC NOAA

Santa Maria Acores , Portugal (LPAZ) 36-58N 025-10W 100M
Oct 15, 2019 - 02:30 PM EDT / 2019.10.15 1830 UTC
Wind: from the W (270 degrees) at 20 MPH (17 KT):0
Visibility: greater than 7 mile(s):0
Sky conditions: mostly cloudy
Temperature: 69 F (21 C)
Dew Point: 60 F (16 C)
Relative Humidity: 73%
Pressure (altimeter): 30.12 in. Hg (1020 hPa)
ob: LPAZ 151830Z 27017KT 9999 FEW023 SCT033 BKN040 21/16 Q1020
cycle: 18

Station Type Date Time Source
LPAZ TAF 2019/10/15 18:18 UTC NOAA

TAF TAF LPAZ 151700Z 1518/1624 27017KT 9999 FEW025 BKN040
BECMG 1520/1522 SCT008 BKN020
TEMPO 1522/1620 5000 -RADZ BR SCT006 BKN012 PROB30 1615/1620 3000 DZRA BR SCT004 BKN008
BECMG 1620/1623 36010KT

Example: see airport list